createdAt,value
2022-11-09T00:01:02.584Z,6.70
2022-11-09T00:03:31.753Z,6.32
2022-11-09T00:06:00.966Z,7.68
2022-11-09T00:08:29.778Z,7.17
2022-11-09T00:11:03.883Z,8.68
2022-11-09T00:13:31.664Z,6.80
2022-11-09T00:15:59.876Z,6.82
2022-11-09T00:18:27.832Z,7.40
2022-11-09T00:20:57.135Z,8.80
2022-11-09T00:23:24.804Z,8.10
2022-11-09T00:25:52.808Z,8.80
2022-11-09T00:28:20.432Z,10.10
2022-11-09T00:30:48.044Z,9.52
2022-11-09T00:33:16.531Z,11.30
2022-11-09T00:35:44.562Z,16.95
2022-11-09T00:38:13.637Z,18.10
2022-11-09T00:40:41.228Z,21.40
2022-11-09T00:43:08.959Z,19.83
2022-11-09T00:45:36.748Z,13.73
2022-11-09T00:48:04.587Z,13.23
2022-11-09T00:50:32.597Z,12.40
2022-11-09T00:53:00.768Z,11.18
2022-11-09T00:55:31.624Z,9.15
2022-11-09T00:57:59.719Z,7.97
2022-11-09T01:00:27.529Z,7.65
2022-11-09T01:02:55.464Z,10.85
2022-11-09T01:05:23.297Z,9.80
2022-11-09T01:07:51.032Z,10.50
2022-11-09T01:10:18.790Z,11.00
2022-11-09T01:12:50.586Z,13.38
2022-11-09T01:15:18.427Z,14.27
2022-11-09T01:17:48.030Z,17.67
2022-11-09T01:20:15.862Z,18.95
2022-11-09T01:22:43.611Z,18.27
2022-11-09T01:25:11.578Z,19.00
2022-11-09T01:27:39.253Z,16.58
2022-11-09T01:30:09.814Z,13.60
2022-11-09T01:32:37.449Z,11.77
2022-11-09T01:35:05.929Z,12.57
2022-11-09T01:37:33.647Z,8.73
2022-11-09T01:40:01.308Z,11.30
2022-11-09T01:42:30.353Z,8.63
2022-11-09T01:45:28.412Z,11.40
2022-11-09T01:48:02.934Z,12.93
2022-11-09T01:50:39.242Z,16.95
2022-11-09T01:53:11.486Z,15.07
2022-11-09T01:55:39.213Z,14.43
2022-11-09T01:58:10.269Z,14.10
2022-11-09T02:00:43.953Z,15.17
2022-11-09T02:03:16.461Z,10.90
2022-11-09T02:05:45.213Z,10.15
2022-11-09T02:08:16.608Z,10.45
2022-11-09T02:10:49.406Z,9.43
2022-11-09T02:13:20.936Z,11.50
2022-11-09T02:15:51.080Z,10.35
2022-11-09T02:18:19.862Z,11.07
2022-11-09T02:20:51.551Z,10.13
2022-11-09T02:23:20.254Z,9.68
2022-11-09T02:25:52.267Z,11.67
2022-11-09T02:28:20.434Z,9.65
2022-11-09T02:30:51.331Z,10.48
2022-11-09T02:33:19.353Z,11.63
2022-11-09T02:35:47.739Z,10.95
2022-11-09T02:38:17.940Z,10.57
2022-11-09T02:40:49.688Z,12.10
2022-11-09T02:43:19.054Z,9.30
2022-11-09T02:45:47.014Z,11.15
2022-11-09T02:48:14.925Z,10.85
2022-11-09T02:50:42.946Z,9.73
2022-11-09T02:53:10.568Z,11.38
2022-11-09T02:55:39.700Z,14.32
2022-11-09T02:58:07.676Z,12.70
2022-11-09T03:00:35.417Z,11.05
2022-11-09T03:03:03.340Z,10.30
2022-11-09T03:05:31.169Z,11.40
2022-11-09T03:08:02.683Z,9.50
2022-11-09T03:10:30.471Z,9.80
2022-11-09T03:12:59.520Z,13.18
2022-11-09T03:15:27.325Z,10.57
2022-11-09T03:17:55.162Z,8.88
2022-11-09T03:20:22.843Z,11.25
2022-11-09T03:22:50.824Z,10.95
2022-11-09T03:25:18.422Z,9.13
2022-11-09T03:27:46.387Z,9.23
2022-11-09T03:30:20.251Z,10.52
2022-11-09T03:32:50.689Z,9.77
2022-11-09T03:35:18.489Z,11.25
2022-11-09T03:37:46.277Z,11.80
2022-11-09T03:40:14.090Z,14.00
2022-11-09T03:42:45.922Z,11.93
2022-11-09T03:45:17.121Z,12.07
2022-11-09T03:47:45.894Z,12.43
2022-11-09T03:50:14.811Z,11.60
2022-11-09T03:52:46.549Z,12.30
2022-11-09T03:55:15.409Z,9.52
2022-11-09T03:57:45.491Z,12.57
2022-11-09T04:00:17.213Z,12.55
2022-11-09T04:02:45.117Z,16.83
2022-11-09T04:05:13.453Z,18.73
2022-11-09T04:07:44.099Z,21.35
2022-11-09T04:10:11.721Z,15.13
2022-11-09T04:12:39.490Z,11.50
2022-11-09T04:15:07.789Z,13.65
2022-11-09T04:17:37.053Z,13.60
2022-11-09T04:20:05.230Z,13.60
2022-11-09T04:22:40.421Z,11.93
2022-11-09T04:25:08.775Z,12.25
2022-11-09T04:27:36.382Z,13.15
2022-11-09T04:30:04.522Z,12.57
2022-11-09T04:32:32.304Z,13.00
2022-11-09T04:35:01.272Z,12.50
2022-11-09T04:37:29.256Z,10.80
2022-11-09T04:39:56.847Z,10.32
2022-11-09T04:42:24.631Z,11.23
2022-11-09T04:44:52.277Z,12.25
2022-11-09T04:47:19.895Z,14.07
2022-11-09T04:49:47.621Z,15.07
2022-11-09T04:52:16.771Z,14.68
2022-11-09T04:54:44.421Z,10.50
2022-11-09T04:57:11.968Z,13.57
2022-11-09T04:59:39.717Z,11.23
2022-11-09T05:02:07.553Z,12.55
2022-11-09T05:04:35.158Z,11.23
2022-11-09T05:07:02.877Z,11.90
2022-11-09T05:09:32.096Z,10.65
2022-11-09T05:11:59.671Z,12.07
2022-11-09T05:14:27.303Z,11.20
2022-11-09T05:16:55.223Z,11.45
2022-11-09T05:19:22.850Z,13.60
2022-11-09T05:21:50.507Z,10.65
2022-11-09T05:24:17.490Z,10.68
2022-11-09T05:26:46.478Z,11.98
2022-11-09T05:29:14.831Z,12.95
2022-11-09T05:31:45.485Z,10.63
2022-11-09T05:34:17.502Z,10.82
2022-11-09T05:36:45.163Z,10.98
2022-11-09T05:39:12.930Z,10.35
2022-11-09T05:41:40.521Z,10.02
2022-11-09T05:44:09.654Z,12.03
2022-11-09T05:46:37.245Z,11.75
2022-11-09T05:49:05.309Z,12.23
2022-11-09T05:51:32.903Z,13.05
2022-11-09T05:54:00.673Z,12.80
2022-11-09T05:56:28.294Z,12.13
2022-11-09T05:58:57.139Z,13.07
2022-11-09T06:01:26.245Z,12.40
2022-11-09T06:03:55.197Z,11.73
2022-11-09T06:06:22.867Z,12.10
2022-11-09T06:08:51.150Z,10.53
2022-11-09T06:11:24.089Z,11.25
2022-11-09T06:13:52.392Z,11.20
2022-11-09T06:16:20.199Z,11.98
2022-11-09T06:18:53.254Z,12.15
2022-11-09T06:21:20.868Z,11.87
2022-11-09T06:23:48.722Z,11.27
2022-11-09T06:26:16.416Z,12.18
2022-11-09T06:28:44.370Z,11.65
2022-11-09T06:31:15.726Z,10.18
2022-11-09T06:33:43.886Z,16.60
2022-11-09T06:36:13.455Z,12.00
2022-11-09T06:38:42.043Z,11.10
2022-11-09T06:41:11.303Z,9.90
2022-11-09T06:43:39.039Z,11.18
2022-11-09T06:46:07.354Z,11.43
2022-11-09T06:48:35.272Z,11.35
2022-11-09T06:51:03.740Z,11.65
2022-11-09T06:53:35.132Z,10.38
2022-11-09T06:56:04.043Z,10.60
2022-11-09T06:58:32.889Z,10.40
2022-11-09T07:01:01.116Z,12.57
2022-11-09T07:03:28.826Z,11.27
2022-11-09T07:05:56.562Z,12.65
2022-11-09T07:08:24.388Z,14.70
2022-11-09T07:10:53.458Z,16.80
2022-11-09T07:13:21.594Z,20.42
2022-11-09T07:15:55.758Z,22.08
2022-11-09T07:18:25.270Z,17.02
2022-11-09T07:20:53.177Z,11.95
2022-11-09T07:23:21.325Z,11.73
2022-11-09T07:25:49.384Z,15.85
2022-11-09T07:28:20.931Z,10.88
2022-11-09T07:30:52.003Z,11.20
2022-11-09T07:33:22.855Z,11.90
2022-11-09T07:35:51.145Z,12.80
2022-11-09T07:38:19.809Z,13.65
2022-11-09T07:40:49.124Z,14.13
2022-11-09T07:43:19.146Z,9.73
2022-11-09T07:45:47.743Z,11.13
2022-11-09T07:48:15.955Z,11.47
2022-11-09T07:50:44.697Z,16.05
2022-11-09T07:53:14.466Z,13.10
2022-11-09T07:55:42.808Z,10.60
2022-11-09T07:58:14.214Z,10.75
2022-11-09T08:00:44.626Z,10.93
2022-11-09T08:03:12.346Z,10.30
2022-11-09T08:05:40.782Z,11.48
2022-11-09T08:08:11.577Z,13.02
2022-11-09T08:10:40.070Z,12.57
2022-11-09T08:13:09.314Z,11.87
2022-11-09T08:15:38.480Z,14.88
2022-11-09T08:18:10.994Z,11.95
2022-11-09T08:20:39.044Z,11.55
2022-11-09T08:23:07.309Z,11.70
2022-11-09T08:25:36.085Z,11.73
2022-11-09T08:28:04.717Z,10.52
2022-11-09T08:30:33.195Z,12.25
2022-11-09T08:33:02.399Z,9.73
2022-11-09T08:35:32.537Z,9.65
2022-11-09T08:38:03.774Z,9.97
2022-11-09T08:40:33.245Z,9.45
2022-11-09T08:43:04.941Z,10.70
2022-11-09T08:45:35.725Z,9.80
2022-11-09T08:48:04.115Z,9.77
2022-11-09T08:50:35.155Z,8.83
2022-11-09T08:53:03.804Z,10.18
2022-11-09T08:55:31.486Z,9.55
2022-11-09T08:58:01.205Z,9.38
2022-11-09T09:00:29.309Z,8.95
2022-11-09T09:02:57.433Z,8.30
2022-11-09T09:05:25.070Z,9.70
2022-11-09T09:07:54.132Z,9.75
2022-11-09T09:10:21.746Z,8.93
2022-11-09T09:12:49.553Z,10.20
2022-11-09T09:15:17.325Z,12.43
2022-11-09T09:17:45.152Z,13.05
2022-11-09T09:20:14.029Z,12.20
2022-11-09T09:22:41.720Z,11.50
2022-11-09T09:25:11.454Z,10.93
2022-11-09T09:27:39.309Z,10.97
2022-11-09T09:30:08.604Z,12.55
2022-11-09T09:32:36.299Z,11.30
2022-11-09T09:35:04.084Z,13.55
2022-11-09T09:37:31.824Z,9.40
2022-11-09T09:39:59.404Z,9.37
2022-11-09T09:42:32.633Z,12.07
2022-11-09T09:45:05.602Z,14.55
2022-11-09T09:47:45.838Z,12.68
2022-11-09T09:50:16.084Z,14.75
2022-11-09T09:53:10.623Z,10.67
2022-11-09T09:55:40.465Z,12.05
2022-11-09T09:58:14.323Z,8.75
2022-11-09T10:00:42.799Z,9.18
2022-11-09T10:03:17.272Z,9.77
2022-11-09T10:05:51.461Z,10.50
2022-11-09T10:08:29.724Z,10.20
2022-11-09T10:11:08.195Z,9.75
2022-11-09T10:13:59.923Z,9.23
2022-11-09T10:16:39.500Z,8.57
2022-11-09T10:19:26.941Z,8.87
2022-11-09T10:21:59.290Z,8.95
2022-11-09T10:27:42.777Z,8.15
2022-11-09T10:30:17.725Z,7.07
2022-11-09T10:32:48.808Z,8.17
2022-11-09T10:35:20.180Z,7.65
2022-11-09T10:37:50.384Z,6.82
2022-11-09T10:40:23.390Z,8.18
2022-11-09T10:42:54.486Z,9.77
2022-11-09T10:45:30.399Z,7.27
2022-11-09T10:47:59.092Z,8.35
2022-11-09T10:50:32.563Z,8.02
2022-11-09T10:53:16.413Z,10.32
2022-11-09T10:55:56.072Z,27.65
2022-11-09T10:58:32.578Z,20.70
2022-11-09T11:01:04.873Z,16.90
2022-11-09T11:03:35.356Z,14.52
2022-11-09T11:06:05.544Z,11.15
2022-11-09T11:08:37.463Z,11.05
2022-11-09T11:11:36.185Z,10.17
2022-11-09T11:14:17.125Z,7.55
2022-11-09T11:16:53.305Z,8.10
2022-11-09T11:19:30.935Z,8.27
2022-11-09T11:22:22.637Z,9.32
2022-11-09T11:24:55.723Z,8.43
2022-11-09T11:27:29.574Z,8.30
2022-11-09T11:30:05.071Z,8.85
2022-11-09T11:32:34.290Z,7.75
2022-11-09T11:35:02.712Z,6.90
2022-11-09T11:37:44.684Z,6.43
2022-11-09T11:40:21.336Z,6.90
2022-11-09T11:43:08.060Z,7.22
2022-11-09T11:45:41.274Z,5.72
2022-11-09T11:48:47.718Z,9.25
2022-11-09T11:51:20.161Z,7.60
2022-11-09T11:54:07.308Z,8.55
2022-11-09T11:56:39.173Z,6.35
2022-11-09T11:59:28.952Z,6.55
2022-11-09T12:02:19.889Z,6.05
2022-11-09T12:05:02.789Z,7.73
2022-11-09T12:07:39.471Z,6.90
2022-11-09T12:10:39.704Z,7.05
2022-11-09T12:13:15.958Z,6.47
2022-11-09T12:16:05.859Z,6.40
2022-11-09T12:18:44.747Z,5.80
2022-11-09T12:21:18.457Z,6.10
2022-11-09T12:24:06.220Z,7.95
2022-11-09T12:27:04.730Z,5.40
2022-11-09T12:29:44.687Z,4.95
2022-11-09T12:32:21.823Z,4.93
2022-11-09T12:34:57.890Z,6.00
2022-11-09T12:37:30.673Z,6.68
2022-11-09T12:40:14.944Z,6.03
2022-11-09T12:42:48.787Z,5.55
2022-11-09T12:45:24.323Z,5.57
2022-11-09T12:47:54.804Z,5.30
2022-11-09T12:50:25.668Z,7.63
2022-11-09T12:52:54.333Z,5.55
2022-11-09T12:55:28.254Z,5.80
2022-11-09T12:58:00.647Z,6.13
2022-11-09T13:00:48.007Z,4.97
2022-11-09T13:03:22.765Z,5.70
2022-11-09T13:06:09.931Z,6.10
2022-11-09T13:08:39.476Z,5.68
2022-11-09T13:11:20.894Z,5.40
2022-11-09T13:13:48.870Z,6.07
2022-11-09T13:16:35.843Z,5.95
2022-11-09T13:19:03.868Z,7.10
2022-11-09T13:21:42.302Z,5.82
2022-11-09T13:24:55.917Z,3.50
2022-11-09T13:27:43.480Z,5.03
2022-11-09T13:30:38.521Z,4.75
2022-11-09T13:33:19.592Z,5.07
2022-11-09T13:36:16.923Z,4.75
2022-11-09T13:38:44.882Z,4.60
2022-11-09T13:41:44.068Z,5.43
2022-11-09T13:44:24.847Z,5.72
2022-11-09T13:46:53.993Z,5.28
2022-11-09T13:49:42.798Z,4.97
2022-11-09T13:52:50.804Z,6.03
2022-11-09T13:55:33.249Z,9.07
2022-11-09T13:58:05.990Z,5.30
2022-11-09T14:00:35.226Z,6.45
2022-11-09T14:03:06.666Z,5.53
2022-11-09T14:05:37.954Z,6.17
2022-11-09T14:08:06.483Z,6.43
2022-11-09T14:10:47.860Z,6.97
2022-11-09T14:13:35.568Z,6.50
2022-11-09T14:16:12.735Z,7.13
2022-11-09T14:18:50.995Z,5.53
2022-11-09T14:21:45.233Z,6.18
2022-11-09T14:24:21.223Z,5.70
2022-11-09T14:27:04.239Z,7.55
2022-11-09T14:29:33.086Z,6.43
2022-11-09T14:32:04.158Z,5.83
2022-11-09T14:34:31.851Z,6.40
2022-11-09T14:37:03.172Z,6.07
2022-11-09T14:39:35.159Z,10.65
2022-11-09T14:42:03.371Z,14.57
2022-11-09T14:44:35.688Z,13.20
2022-11-09T14:47:06.425Z,10.73
2022-11-09T14:49:34.165Z,9.55
2022-11-09T14:52:03.114Z,8.45
2022-11-09T14:54:30.997Z,8.07
2022-11-09T14:56:58.961Z,11.23
2022-11-09T14:59:31.546Z,8.25
2022-11-09T15:02:02.213Z,7.75
2022-11-09T15:04:31.702Z,8.48
2022-11-09T15:07:02.862Z,9.25
2022-11-09T15:09:35.208Z,9.30
2022-11-09T15:12:03.488Z,9.98
2022-11-09T15:14:33.524Z,10.13
2022-11-09T15:17:12.274Z,18.80
2022-11-09T15:19:52.058Z,18.92
2022-11-09T15:22:51.879Z,12.40
2022-11-09T15:25:29.003Z,11.90
2022-11-09T15:28:20.434Z,10.60
2022-11-09T15:30:50.624Z,9.18
2022-11-09T15:33:26.928Z,14.43
2022-11-09T15:35:58.667Z,12.87
2022-11-09T15:38:32.425Z,17.05
2022-11-09T15:41:00.691Z,11.85
2022-11-09T15:43:28.871Z,12.82
2022-11-09T15:45:58.274Z,16.48
2022-11-09T15:48:25.983Z,24.80
2022-11-09T15:50:54.134Z,42.03
2022-11-09T15:53:23.625Z,32.33
2022-11-09T15:55:52.808Z,24.63
2022-11-09T15:58:20.794Z,21.95
2022-11-09T16:00:48.787Z,29.70
2022-11-09T16:03:18.272Z,45.15
2022-11-09T16:05:46.504Z,44.75
2022-11-09T16:08:14.848Z,22.83
2022-11-09T16:10:44.720Z,14.85
2022-11-09T16:13:12.697Z,10.47
2022-11-09T16:15:40.853Z,11.68
2022-11-09T16:18:08.599Z,11.93
2022-11-09T16:20:36.421Z,12.13
2022-11-09T16:23:04.126Z,12.10
2022-11-09T16:25:31.939Z,17.43
2022-11-09T16:28:01.061Z,16.35
2022-11-09T16:30:29.939Z,13.95
2022-11-09T16:32:57.709Z,13.98
2022-11-09T16:35:27.776Z,11.30
2022-11-09T16:37:57.125Z,18.93
2022-11-09T16:40:26.014Z,14.82
2022-11-09T16:42:53.884Z,16.23
2022-11-09T16:45:25.965Z,12.85
2022-11-09T16:47:57.928Z,10.82
2022-11-09T16:50:25.899Z,17.07
2022-11-09T16:52:53.739Z,14.38
2022-11-09T16:55:21.387Z,14.73
2022-11-09T16:57:49.429Z,20.45
2022-11-09T17:00:19.803Z,17.67
2022-11-09T17:02:48.773Z,14.93
2022-11-09T17:05:17.667Z,18.05
2022-11-09T17:07:47.960Z,26.85
2022-11-09T17:10:16.009Z,23.63
2022-11-09T17:12:44.688Z,21.38
2022-11-09T17:15:12.479Z,20.70
2022-11-09T17:17:40.833Z,17.65
2022-11-09T17:20:11.497Z,15.60
2022-11-09T17:22:45.716Z,18.27
2022-11-09T17:25:13.785Z,22.30
2022-11-09T17:27:41.624Z,27.30
2022-11-09T17:30:10.664Z,25.30
2022-11-09T17:32:38.684Z,19.42
2022-11-09T17:35:06.664Z,17.45
2022-11-09T17:37:35.882Z,10.68
2022-11-09T17:40:03.561Z,10.83
2022-11-09T17:42:31.384Z,10.35
2022-11-09T17:45:01.339Z,25.25
2022-11-09T17:47:29.407Z,16.92
2022-11-09T17:49:57.207Z,13.15
2022-11-09T17:52:25.206Z,13.67
2022-11-09T17:54:54.267Z,15.25
2022-11-09T17:57:21.826Z,15.05
2022-11-09T17:59:51.003Z,15.05
2022-11-09T18:02:18.773Z,14.00
2022-11-09T18:04:46.418Z,11.97
2022-11-09T18:07:14.407Z,12.30
2022-11-09T18:09:42.783Z,16.85
2022-11-09T18:12:13.282Z,14.35
2022-11-09T18:14:41.203Z,26.27
2022-11-09T18:17:08.960Z,36.20
2022-11-09T18:19:36.543Z,39.40
2022-11-09T18:22:06.575Z,20.23
2022-11-09T18:24:39.779Z,15.77
2022-11-09T18:27:07.504Z,12.38
2022-11-09T18:29:36.505Z,12.27
2022-11-09T18:32:04.497Z,12.35
2022-11-09T18:34:32.160Z,10.32
2022-11-09T18:36:59.994Z,12.77
2022-11-09T18:39:28.254Z,10.23
2022-11-09T18:41:57.141Z,12.23
2022-11-09T18:44:25.188Z,11.85
2022-11-09T18:46:54.276Z,12.85
2022-11-09T18:49:21.896Z,11.35
2022-11-09T18:51:49.693Z,11.55
2022-11-09T18:54:17.281Z,12.50
2022-11-09T18:56:46.092Z,11.73
2022-11-09T18:59:15.079Z,13.43
2022-11-09T19:01:42.749Z,12.20
2022-11-09T19:04:14.404Z,13.88
2022-11-09T19:06:42.129Z,12.67
2022-11-09T19:09:28.681Z,12.45
2022-11-09T19:11:57.356Z,11.68
2022-11-09T19:14:25.690Z,12.27
2022-11-09T19:16:54.117Z,10.40
2022-11-09T19:19:24.526Z,10.80
2022-11-09T19:21:53.610Z,10.10
2022-11-09T19:24:24.402Z,9.85
2022-11-09T19:26:54.707Z,10.82
2022-11-09T19:29:22.607Z,14.82
2022-11-09T19:31:50.741Z,16.17
2022-11-09T19:34:21.982Z,13.30
2022-11-09T19:36:51.629Z,12.82
2022-11-09T19:39:19.867Z,12.25
2022-11-09T19:41:47.954Z,11.40
2022-11-09T19:44:18.138Z,11.03
2022-11-09T19:46:46.041Z,10.75
2022-11-09T19:49:13.728Z,11.63
2022-11-09T19:51:41.832Z,11.40
2022-11-09T19:54:14.468Z,10.95
2022-11-09T19:56:42.370Z,12.50
2022-11-09T19:59:14.318Z,11.50
2022-11-09T20:01:42.308Z,14.27
2022-11-09T20:04:11.433Z,17.55
2022-11-09T20:06:41.362Z,14.07
2022-11-09T20:09:10.415Z,11.50
2022-11-09T20:11:55.942Z,12.55
2022-11-09T20:14:23.699Z,13.43
2022-11-09T20:16:51.786Z,14.43
2022-11-09T20:19:20.164Z,14.15
2022-11-09T20:21:49.188Z,14.47
2022-11-09T20:24:18.183Z,14.00
2022-11-09T20:26:45.840Z,15.05
2022-11-09T20:29:13.673Z,13.65
2022-11-09T20:31:41.597Z,14.82
2022-11-09T20:34:09.371Z,20.80
2022-11-09T20:36:37.137Z,15.90
2022-11-09T20:39:05.485Z,12.05
2022-11-09T20:41:35.864Z,10.73
2022-11-09T20:44:03.595Z,12.90
2022-11-09T20:46:36.154Z,12.57
2022-11-09T20:49:05.127Z,13.02
2022-11-09T20:51:33.162Z,13.80
2022-11-09T20:54:06.596Z,11.45
2022-11-09T20:56:38.110Z,10.93
2022-11-09T20:59:06.060Z,18.70
2022-11-09T21:01:33.977Z,20.38
2022-11-09T21:04:02.035Z,14.52
2022-11-09T21:06:29.863Z,15.77
2022-11-09T21:08:58.485Z,14.50
2022-11-09T21:11:28.643Z,21.60
2022-11-09T21:13:58.003Z,13.25
2022-11-09T21:16:25.739Z,13.20
2022-11-09T21:18:53.578Z,12.50
2022-11-09T21:21:23.206Z,11.07
2022-11-09T21:24:09.231Z,16.60
2022-11-09T21:26:54.266Z,17.98
2022-11-09T21:29:42.548Z,12.45
2022-11-09T21:32:11.642Z,14.07
2022-11-09T21:34:39.455Z,17.30
2022-11-09T21:37:07.560Z,16.43
2022-11-09T21:39:35.555Z,14.30
2022-11-09T21:42:04.865Z,15.07
2022-11-09T21:44:35.463Z,13.75
2022-11-09T21:47:04.172Z,15.35
2022-11-09T21:49:34.742Z,13.40
2022-11-09T21:52:03.588Z,12.65
2022-11-09T21:54:31.733Z,12.23
2022-11-09T21:56:59.700Z,11.43
2022-11-09T21:59:28.709Z,12.38
2022-11-09T22:01:59.746Z,13.67
2022-11-09T22:04:27.338Z,13.95
2022-11-09T22:06:55.283Z,14.77
2022-11-09T22:09:23.047Z,12.95
2022-11-09T22:12:08.518Z,13.27
2022-11-09T22:14:53.765Z,13.40
2022-11-09T22:17:22.724Z,13.15
2022-11-09T22:20:07.789Z,12.88
2022-11-09T22:22:36.271Z,12.43
2022-11-09T22:25:04.554Z,12.23
2022-11-09T22:27:32.666Z,11.83
2022-11-09T22:30:00.402Z,11.35
2022-11-09T22:32:29.508Z,10.57
2022-11-09T22:34:57.526Z,13.20
2022-11-09T22:37:25.914Z,14.45
2022-11-09T22:39:53.724Z,15.97
2022-11-09T22:42:21.330Z,19.65
2022-11-09T22:44:49.106Z,29.92
2022-11-09T22:47:16.678Z,24.65
2022-11-09T22:49:45.608Z,22.40
2022-11-09T22:52:13.559Z,21.30
2022-11-09T22:54:41.321Z,17.75
2022-11-09T22:57:09.122Z,17.52
2022-11-09T22:59:36.993Z,17.02
2022-11-09T23:02:04.625Z,14.93
2022-11-09T23:04:32.474Z,13.03
2022-11-09T23:07:01.489Z,14.65
2022-11-09T23:09:31.801Z,14.40
2022-11-09T23:11:59.392Z,15.32
2022-11-09T23:14:41.073Z,18.77
2022-11-09T23:17:28.970Z,16.07
2022-11-09T23:19:55.568Z,14.13
2022-11-09T23:22:24.559Z,17.55
2022-11-09T23:25:09.187Z,19.00
2022-11-09T23:27:36.787Z,17.70
2022-11-09T23:30:05.262Z,20.00
2022-11-09T23:32:33.404Z,16.15
2022-11-09T23:35:01.040Z,15.80
2022-11-09T23:37:30.229Z,12.50
2022-11-09T23:39:57.831Z,13.80
2022-11-09T23:42:25.399Z,14.23
2022-11-09T23:44:53.219Z,13.32
2022-11-09T23:47:20.822Z,13.10
2022-11-09T23:49:48.718Z,15.50
2022-11-09T23:52:16.471Z,14.25
2022-11-09T23:54:46.546Z,13.53
2022-11-09T23:57:14.717Z,15.35
2022-11-09T23:59:42.317Z,14.98
